sensor_id;sensor_type;location;lat;lon;timestamp;pressure;altitude;pressure_sealevel;temperature;humidity
78073;BME280;67281;48.770;11.440;2023-05-07T00:01:40;97205.34;;;22.54;44.22
78073;BME280;67281;48.770;11.440;2023-05-07T00:04:06;97210.84;;;22.52;45.03
78073;BME280;67281;48.770;11.440;2023-05-07T00:06:34;97212.50;;;22.53;45.17
78073;BME280;67281;48.770;11.440;2023-05-07T00:09:01;97203.03;;;22.51;44.62
78073;BME280;67281;48.770;11.440;2023-05-07T00:11:28;97206.72;;;22.50;44.37
78073;BME280;67281;48.770;11.440;2023-05-07T00:13:55;97203.41;;;22.48;44.64
78073;BME280;67281;48.770;11.440;2023-05-07T00:16:22;97209.94;;;22.45;44.74
78073;BME280;67281;48.770;11.440;2023-05-07T00:18:49;97204.59;;;22.45;44.32
78073;BME280;67281;48.770;11.440;2023-05-07T00:21:16;97198.59;;;22.43;44.99
78073;BME280;67281;48.770;11.440;2023-05-07T00:23:43;97202.28;;;22.42;44.59
78073;BME280;67281;48.770;11.440;2023-05-07T00:26:09;97206.97;;;22.40;44.60
78073;BME280;67281;48.770;11.440;2023-05-07T00:28:36;97198.97;;;22.40;44.42
78073;BME280;67281;48.770;11.440;2023-05-07T00:31:03;97202.00;;;22.37;45.08
78073;BME280;67281;48.770;11.440;2023-05-07T00:33:30;97203.84;;;22.37;44.87
78073;BME280;67281;48.770;11.440;2023-05-07T00:35:57;97210.19;;;22.36;45.02
78073;BME280;67281;48.770;11.440;2023-05-07T00:38:23;97210.56;;;22.33;44.40
78073;BME280;67281;48.770;11.440;2023-05-07T00:40:50;97209.72;;;22.32;44.30
78073;BME280;67281;48.770;11.440;2023-05-07T00:43:18;97208.91;;;22.32;44.80
78073;BME280;67281;48.770;11.440;2023-05-07T00:45:44;97213.41;;;22.31;44.36
78073;BME280;67281;48.770;11.440;2023-05-07T00:48:12;97221.59;;;22.29;44.66
78073;BME280;67281;48.770;11.440;2023-05-07T00:50:40;97212.97;;;22.27;44.76
78073;BME280;67281;48.770;11.440;2023-05-07T00:53:07;97212.97;;;22.27;44.77
78073;BME280;67281;48.770;11.440;2023-05-07T00:55:35;97202.66;;;22.24;44.32
78073;BME280;67281;48.770;11.440;2023-05-07T00:58:02;97204.50;;;22.24;44.50
78073;BME280;67281;48.770;11.440;2023-05-07T01:00:29;97210.84;;;22.23;45.07
78073;BME280;67281;48.770;11.440;2023-05-07T01:02:56;97208.34;;;22.21;44.58
78073;BME280;67281;48.770;11.440;2023-05-07T01:05:24;97203.00;;;22.21;44.41
78073;BME280;67281;48.770;11.440;2023-05-07T01:07:53;97204.22;;;22.19;45.00
78073;BME280;67281;48.770;11.440;2023-05-07T01:10:21;97200.72;;;22.18;45.14
78073;BME280;67281;48.770;11.440;2023-05-07T01:12:49;97203.56;;;22.17;44.88
78073;BME280;67281;48.770;11.440;2023-05-07T01:15:17;97199.22;;;22.16;44.71
78073;BME280;67281;48.770;11.440;2023-05-07T01:17:44;97199.41;;;22.14;44.66
78073;BME280;67281;48.770;11.440;2023-05-07T01:20:11;97196.09;;;22.12;44.41
78073;BME280;67281;48.770;11.440;2023-05-07T01:22:40;97192.59;;;22.12;44.97
78073;BME280;67281;48.770;11.440;2023-05-07T01:25:07;97190.28;;;22.09;44.72
78073;BME280;67281;48.770;11.440;2023-05-07T01:27:35;97186.78;;;22.08;44.83
78073;BME280;67281;48.770;11.440;2023-05-07T01:30:04;97185.13;;;22.07;44.74
78073;BME280;67281;48.770;11.440;2023-05-07T01:32:48;97178.97;;;22.07;45.00
78073;BME280;67281;48.770;11.440;2023-05-07T01:35:19;97179.97;;;22.06;44.69
78073;BME280;67281;48.770;11.440;2023-05-07T01:37:47;97186.31;;;22.05;45.04
78073;BME280;67281;48.770;11.440;2023-05-07T01:40:15;97182.00;;;22.04;44.25
78073;BME280;67281;48.770;11.440;2023-05-07T01:42:43;97177.66;;;22.03;44.80
78073;BME280;67281;48.770;11.440;2023-05-07T01:45:10;97187.66;;;22.01;44.58
78073;BME280;67281;48.770;11.440;2023-05-07T01:47:39;97180.66;;;22.00;44.61
78073;BME280;67281;48.770;11.440;2023-05-07T01:50:07;97178.00;;;22.00;45.08
78073;BME280;67281;48.770;11.440;2023-05-07T01:52:37;97186.19;;;21.98;44.68
78073;BME280;67281;48.770;11.440;2023-05-07T01:55:05;97188.00;;;21.97;44.79
78073;BME280;67281;48.770;11.440;2023-05-07T01:57:32;97183.88;;;21.95;44.94
78073;BME280;67281;48.770;11.440;2023-05-07T01:59:59;97192.88;;;21.94;45.01
78073;BME280;67281;48.770;11.440;2023-05-07T02:02:26;97191.22;;;21.93;44.78
78073;BME280;67281;48.770;11.440;2023-05-07T02:04:53;97197.56;;;21.92;45.13
78073;BME280;67281;48.770;11.440;2023-05-07T02:07:20;97187.91;;;21.91;45.07
78073;BME280;67281;48.770;11.440;2023-05-07T02:09:46;97188.09;;;21.89;45.24
78073;BME280;67281;48.770;11.440;2023-05-07T02:12:13;97187.44;;;21.87;44.70
78073;BME280;67281;48.770;11.440;2023-05-07T02:14:41;97196.44;;;21.86;44.58
78073;BME280;67281;48.770;11.440;2023-05-07T02:17:07;97196.44;;;21.86;45.09
78073;BME280;67281;48.770;11.440;2023-05-07T02:19:34;97191.28;;;21.85;44.59
78073;BME280;67281;48.770;11.440;2023-05-07T02:22:01;97195.97;;;21.83;44.76
78073;BME280;67281;48.770;11.440;2023-05-07T02:24:28;97187.97;;;21.83;44.67
78073;BME280;67281;48.770;11.440;2023-05-07T02:26:55;97185.47;;;21.81;45.07
78073;BME280;67281;48.770;11.440;2023-05-07T02:29:22;97185.66;;;21.80;44.46
78073;BME280;67281;48.770;11.440;2023-05-07T02:31:48;97190.34;;;21.78;45.06
78073;BME280;67281;48.770;11.440;2023-05-07T02:34:19;97183.34;;;21.77;44.96
78073;BME280;67281;48.770;11.440;2023-05-07T02:36:46;97195.03;;;21.76;44.67
78073;BME280;67281;48.770;11.440;2023-05-07T02:39:13;97195.84;;;21.76;44.82
78073;BME280;67281;48.770;11.440;2023-05-07T02:41:40;97189.03;;;21.74;44.38
78073;BME280;67281;48.770;11.440;2023-05-07T02:44:07;97194.56;;;21.72;44.74
78073;BME280;67281;48.770;11.440;2023-05-07T02:46:34;97184.91;;;21.71;44.52
78073;BME280;67281;48.770;11.440;2023-05-07T02:49:01;97193.72;;;21.72;44.71
78073;BME280;67281;48.770;11.440;2023-05-07T02:51:30;97192.06;;;21.71;44.75
78073;BME280;67281;48.770;11.440;2023-05-07T02:53:57;97193.06;;;21.70;44.75
78073;BME280;67281;48.770;11.440;2023-05-07T02:56:26;97188.75;;;21.69;44.50
78073;BME280;67281;48.770;11.440;2023-05-07T02:58:53;97184.59;;;21.66;45.09
78073;BME280;67281;48.770;11.440;2023-05-07T03:01:20;97187.25;;;21.66;44.44
78073;BME280;67281;48.770;11.440;2023-05-07T03:03:47;97183.13;;;21.63;45.16
78073;BME280;67281;48.770;11.440;2023-05-07T03:06:14;97190.13;;;21.64;44.71
78073;BME280;67281;48.770;11.440;2023-05-07T03:08:41;97185.13;;;21.61;44.60
78073;BME280;67281;48.770;11.440;2023-05-07T03:11:08;97186.78;;;21.62;44.25
78073;BME280;67281;48.770;11.440;2023-05-07T03:13:35;97185.31;;;21.60;44.50
78073;BME280;67281;48.770;11.440;2023-05-07T03:16:02;97178.31;;;21.59;44.55
78073;BME280;67281;48.770;11.440;2023-05-07T03:18:29;97177.66;;;21.57;44.88
78073;BME280;67281;48.770;11.440;2023-05-07T03:20:55;97181.34;;;21.56;44.29
78073;BME280;67281;48.770;11.440;2023-05-07T03:23:22;97181.34;;;21.56;44.71
78073;BME280;67281;48.770;11.440;2023-05-07T03:25:50;97180.72;;;21.54;44.72
78073;BME280;67281;48.770;11.440;2023-05-07T03:28:17;97183.56;;;21.52;44.60
78073;BME280;67281;48.770;11.440;2023-05-07T03:30:44;97179.22;;;21.51;44.74
78073;BME280;67281;48.770;11.440;2023-05-07T03:33:11;97187.41;;;21.50;44.88
78073;BME280;67281;48.770;11.440;2023-05-07T03:35:38;97190.91;;;21.50;44.41
78073;BME280;67281;48.770;11.440;2023-05-07T03:38:05;97187.59;;;21.48;44.61
78073;BME280;67281;48.770;11.440;2023-05-07T03:40:31;97191.91;;;21.49;44.96
78073;BME280;67281;48.770;11.440;2023-05-07T03:42:59;97191.44;;;21.46;44.97
78073;BME280;67281;48.770;11.440;2023-05-07T03:45:26;97195.94;;;21.45;44.77
78073;BME280;67281;48.770;11.440;2023-05-07T03:47:53;97194.28;;;21.44;44.65
78073;BME280;67281;48.770;11.440;2023-05-07T03:50:20;97202.28;;;21.44;44.73
78073;BME280;67281;48.770;11.440;2023-05-07T03:52:46;97206.78;;;21.44;44.32
78073;BME280;67281;48.770;11.440;2023-05-07T03:55:13;97209.81;;;21.41;44.66
78073;BME280;67281;48.770;11.440;2023-05-07T03:57:40;97207.31;;;21.39;44.48
78073;BME280;67281;48.770;11.440;2023-05-07T04:00:07;97215.97;;;21.41;44.23
78073;BME280;67281;48.770;11.440;2023-05-07T04:02:35;97211.16;;;21.37;44.87
78073;BME280;67281;48.770;11.440;2023-05-07T04:05:02;97208.31;;;21.38;44.28
78073;BME280;67281;48.770;11.440;2023-05-07T04:07:29;97206.84;;;21.36;44.11
78073;BME280;67281;48.770;11.440;2023-05-07T04:09:56;97206.00;;;21.35;44.26
78073;BME280;67281;48.770;11.440;2023-05-07T04:12:23;97207.84;;;21.35;44.33
78073;BME280;67281;48.770;11.440;2023-05-07T04:14:53;97220.16;;;21.36;44.54
78073;BME280;67281;48.770;11.440;2023-05-07T04:17:20;97226.50;;;21.35;44.16
78073;BME280;67281;48.770;11.440;2023-05-07T04:19:47;97219.84;;;21.30;44.91
78073;BME280;67281;48.770;11.440;2023-05-07T04:22:13;97229.69;;;21.30;44.32
78073;BME280;67281;48.770;11.440;2023-05-07T04:24:40;97227.19;;;21.28;44.28
78073;BME280;67281;48.770;11.440;2023-05-07T04:27:07;97221.03;;;21.28;44.58
78073;BME280;67281;48.770;11.440;2023-05-07T04:29:34;97222.03;;;21.27;44.69
78073;BME280;67281;48.770;11.440;2023-05-07T04:32:01;97223.69;;;21.28;44.12
78073;BME280;67281;48.770;11.440;2023-05-07T04:34:28;97221.22;;;21.26;44.87
78073;BME280;67281;48.770;11.440;2023-05-07T04:36:58;97219.72;;;21.24;44.82
78073;BME280;67281;48.770;11.440;2023-05-07T04:39:25;97217.06;;;21.24;45.03
78073;BME280;67281;48.770;11.440;2023-05-07T04:41:52;97217.06;;;21.24;44.59
78073;BME280;67281;48.770;11.440;2023-05-07T04:44:18;97215.22;;;21.24;44.83
78073;BME280;67281;48.770;11.440;2023-05-07T04:46:45;97215.22;;;21.24;44.33
78073;BME280;67281;48.770;11.440;2023-05-07T04:49:12;97209.38;;;21.21;44.20
78073;BME280;67281;48.770;11.440;2023-05-07T04:51:39;97209.38;;;21.21;44.16
78073;BME280;67281;48.770;11.440;2023-05-07T04:54:10;97209.38;;;21.21;44.53
78073;BME280;67281;48.770;11.440;2023-05-07T04:56:37;97213.72;;;21.22;44.11
78073;BME280;67281;48.770;11.440;2023-05-07T04:59:04;97205.06;;;21.20;44.19
78073;BME280;67281;48.770;11.440;2023-05-07T05:01:31;97205.06;;;21.20;44.35
78073;BME280;67281;48.770;11.440;2023-05-07T05:03:58;97211.22;;;21.20;44.10
78073;BME280;67281;48.770;11.440;2023-05-07T05:06:27;97214.06;;;21.19;44.02
78073;BME280;67281;48.770;11.440;2023-05-07T05:08:53;97221.22;;;21.18;43.89
78073;BME280;67281;48.770;11.440;2023-05-07T05:11:20;97226.53;;;21.18;44.67
78073;BME280;67281;48.770;11.440;2023-05-07T05:13:47;97230.88;;;21.19;43.96
78073;BME280;67281;48.770;11.440;2023-05-07T05:16:16;97233.53;;;21.19;43.88
78073;BME280;67281;48.770;11.440;2023-05-07T05:18:42;97239.69;;;21.20;44.19
78073;BME280;67281;48.770;11.440;2023-05-07T05:21:09;97236.38;;;21.18;44.23
78073;BME280;67281;48.770;11.440;2023-05-07T05:23:36;97222.41;;;21.16;44.11
78073;BME280;67281;48.770;11.440;2023-05-07T05:26:03;97225.72;;;21.18;44.06
78073;BME280;67281;48.770;11.440;2023-05-07T05:28:30;97229.38;;;21.17;43.80
78073;BME280;67281;48.770;11.440;2023-05-07T05:30:57;97212.56;;;21.16;43.92
78073;BME280;67281;48.770;11.440;2023-05-07T05:33:23;97225.06;;;21.16;44.22
78073;BME280;67281;48.770;11.440;2023-05-07T05:35:50;97228.56;;;21.16;44.06
78073;BME280;67281;48.770;11.440;2023-05-07T05:38:17;97233.72;;;21.18;44.05
78073;BME280;67281;48.770;11.440;2023-05-07T05:40:44;97233.38;;;21.21;44.35
78073;BME280;67281;48.770;11.440;2023-05-07T05:43:11;97234.06;;;21.23;44.00
78073;BME280;67281;48.770;11.440;2023-05-07T05:45:38;97227.72;;;21.24;43.78
78073;BME280;67281;48.770;11.440;2023-05-07T05:48:05;97232.03;;;21.25;44.15
78073;BME280;67281;48.770;11.440;2023-05-07T05:50:32;97229.38;;;21.25;43.63
78073;BME280;67281;48.770;11.440;2023-05-07T05:52:58;97230.03;;;21.27;43.69
78073;BME280;67281;48.770;11.440;2023-05-07T05:55:25;97230.69;;;21.29;43.70
78073;BME280;67281;48.770;11.440;2023-05-07T05:57:53;97228.03;;;21.29;44.13
78073;BME280;67281;48.770;11.440;2023-05-07T06:00:20;97219.84;;;21.30;43.60
78073;BME280;67281;48.770;11.440;2023-05-07T06:02:49;97228.50;;;21.33;44.30
78073;BME280;67281;48.770;11.440;2023-05-07T06:05:16;97231.81;;;21.35;43.53
78073;BME280;67281;48.770;11.440;2023-05-07T06:07:42;97237.81;;;21.37;43.81
78073;BME280;67281;48.770;11.440;2023-05-07T06:10:09;97241.31;;;21.37;43.47
78073;BME280;67281;48.770;11.440;2023-05-07T06:12:37;97242.13;;;21.38;44.06
78073;BME280;67281;48.770;11.440;2023-05-07T06:15:04;97248.97;;;21.40;43.92
78073;BME280;67281;48.770;11.440;2023-05-07T06:17:31;97239.13;;;21.41;43.40
78073;BME280;67281;48.770;11.440;2023-05-07T06:19:58;97236.47;;;21.41;43.45
78073;BME280;67281;48.770;11.440;2023-05-07T06:22:25;97238.28;;;21.40;43.55
78073;BME280;67281;48.770;11.440;2023-05-07T06:24:52;97238.13;;;21.42;43.35
78073;BME280;67281;48.770;11.440;2023-05-07T06:27:18;97238.78;;;21.44;44.07
78073;BME280;67281;48.770;11.440;2023-05-07T06:29:48;97244.75;;;21.46;43.37
78073;BME280;67281;48.770;11.440;2023-05-07T06:32:15;97246.59;;;21.45;43.90
78073;BME280;67281;48.770;11.440;2023-05-07T06:34:41;97248.91;;;21.48;43.33
78073;BME280;67281;48.770;11.440;2023-05-07T06:37:08;97245.25;;;21.49;43.81
78073;BME280;67281;48.770;11.440;2023-05-07T06:39:35;97255.72;;;21.51;43.73
78073;BME280;67281;48.770;11.440;2023-05-07T06:42:02;97254.56;;;21.53;43.68
78073;BME280;67281;48.770;11.440;2023-05-07T06:44:31;97268.72;;;21.54;43.32
78073;BME280;67281;48.770;11.440;2023-05-07T06:46:58;97280.19;;;21.54;43.46
78073;BME280;67281;48.770;11.440;2023-05-07T06:49:25;97271.19;;;21.55;43.94
78073;BME280;67281;48.770;11.440;2023-05-07T06:51:52;97276.34;;;21.57;43.83
78073;BME280;67281;48.770;11.440;2023-05-07T06:54:20;97271.19;;;21.55;44.02
78073;BME280;67281;48.770;11.440;2023-05-07T06:56:47;97270.34;;;21.55;43.69
78073;BME280;67281;48.770;11.440;2023-05-07T06:59:14;97264.19;;;21.54;43.61
78073;BME280;67281;48.770;11.440;2023-05-07T07:01:40;97262.56;;;21.53;44.02
78073;BME280;67281;48.770;11.440;2023-05-07T07:04:07;97266.06;;;21.54;44.15
78073;BME280;67281;48.770;11.440;2023-05-07T07:06:34;97263.38;;;21.54;43.61
78073;BME280;67281;48.770;11.440;2023-05-07T07:09:01;97263.38;;;21.54;43.44
78073;BME280;67281;48.770;11.440;2023-05-07T07:11:28;97265.22;;;21.53;44.12
78073;BME280;67281;48.770;11.440;2023-05-07T07:13:55;97261.50;;;21.54;44.26
78073;BME280;67281;48.770;11.440;2023-05-07T07:16:22;97268.50;;;21.55;43.85
78073;BME280;67281;48.770;11.440;2023-05-07T07:18:49;97264.66;;;21.58;44.19
78073;BME280;67281;48.770;11.440;2023-05-07T07:21:15;97274.31;;;21.59;43.48
78073;BME280;67281;48.770;11.440;2023-05-07T07:23:42;97275.31;;;21.58;44.02
78073;BME280;67281;48.770;11.440;2023-05-07T07:26:09;97267.97;;;21.60;44.24
78073;BME280;67281;48.770;11.440;2023-05-07T07:28:42;97279.47;;;21.60;43.98
78073;BME280;67281;48.770;11.440;2023-05-07T07:31:11;97279.31;;;21.62;44.21
78073;BME280;67281;48.770;11.440;2023-05-07T07:33:38;97279.97;;;21.64;43.79
78073;BME280;67281;48.770;11.440;2023-05-07T07:36:06;97282.63;;;21.64;43.95
78073;BME280;67281;48.770;11.440;2023-05-07T07:38:34;97277.13;;;21.65;43.64
78073;BME280;67281;48.770;11.440;2023-05-07T07:41:01;97278.78;;;21.67;43.69
78073;BME280;67281;48.770;11.440;2023-05-07T07:43:28;97278.78;;;21.67;43.96
78073;BME280;67281;48.770;11.440;2023-05-07T07:45:54;97279.59;;;21.67;44.03
78073;BME280;67281;48.770;11.440;2023-05-07T07:48:21;97285.78;;;21.68;43.99
78073;BME280;67281;48.770;11.440;2023-05-07T07:50:49;97289.09;;;21.70;44.34
78073;BME280;67281;48.770;11.440;2023-05-07T07:53:17;97299.75;;;21.70;44.45
78073;BME280;67281;48.770;11.440;2023-05-07T07:55:44;97296.09;;;21.71;43.79
78073;BME280;67281;48.770;11.440;2023-05-07T07:58:12;97288.09;;;21.71;44.54
78073;BME280;67281;48.770;11.440;2023-05-07T08:00:40;97291.59;;;21.71;43.77
78073;BME280;67281;48.770;11.440;2023-05-07T08:03:10;97287.75;;;21.74;44.51
78073;BME280;67281;48.770;11.440;2023-05-07T08:05:37;97284.06;;;21.75;44.22
78073;BME280;67281;48.770;11.440;2023-05-07T08:08:05;97287.38;;;21.77;44.81
78073;BME280;67281;48.770;11.440;2023-05-07T08:10:32;97287.22;;;21.78;44.39
78073;BME280;67281;48.770;11.440;2023-05-07T08:13:01;97293.38;;;21.79;44.61
78073;BME280;67281;48.770;11.440;2023-05-07T08:15:30;97292.38;;;21.80;44.71
78073;BME280;67281;48.770;11.440;2023-05-07T08:17:58;97293.84;;;21.82;44.38
78073;BME280;67281;48.770;11.440;2023-05-07T08:20:26;97292.84;;;21.83;44.86
78073;BME280;67281;48.770;11.440;2023-05-07T08:22:53;97282.84;;;21.85;44.05
78073;BME280;67281;48.770;11.440;2023-05-07T08:25:20;97283.66;;;21.86;43.94
78073;BME280;67281;48.770;11.440;2023-05-07T08:27:47;97281.81;;;21.86;43.94
78073;BME280;67281;48.770;11.440;2023-05-07T08:30:14;97280.81;;;21.87;44.29
78073;BME280;67281;48.770;11.440;2023-05-07T08:32:41;97283.31;;;21.89;44.03
78073;BME280;67281;48.770;11.440;2023-05-07T08:35:08;97281.28;;;21.91;44.82
78073;BME280;67281;48.770;11.440;2023-05-07T08:37:35;97289.13;;;21.92;44.32
78073;BME280;67281;48.770;11.440;2023-05-07T08:40:02;97286.28;;;21.94;44.36
78073;BME280;67281;48.770;11.440;2023-05-07T08:42:35;97285.44;;;21.93;44.01
78073;BME280;67281;48.770;11.440;2023-05-07T08:45:04;97287.09;;;21.94;44.23
78073;BME280;67281;48.770;11.440;2023-05-07T08:47:42;97285.91;;;21.97;44.67
78073;BME280;67281;48.770;11.440;2023-05-07T08:50:10;97277.91;;;21.97;44.93
78073;BME280;67281;48.770;11.440;2023-05-07T08:52:39;97284.72;;;22.00;44.15
78073;BME280;67281;48.770;11.440;2023-05-07T08:55:07;97284.72;;;22.00;44.36
78073;BME280;67281;48.770;11.440;2023-05-07T08:57:34;97281.88;;;22.01;44.72
78073;BME280;67281;48.770;11.440;2023-05-07T09:00:03;97291.41;;;22.04;44.13
78073;BME280;67281;48.770;11.440;2023-05-07T09:02:30;97291.22;;;22.05;44.23
78073;BME280;67281;48.770;11.440;2023-05-07T09:04:57;97289.38;;;22.06;44.66
78073;BME280;67281;48.770;11.440;2023-05-07T09:07:25;97290.03;;;22.08;44.93
78073;BME280;67281;48.770;11.440;2023-05-07T09:09:52;97295.22;;;22.09;44.83
78073;BME280;67281;48.770;11.440;2023-05-07T09:12:21;97292.19;;;22.12;44.37
78073;BME280;67281;48.770;11.440;2023-05-07T09:14:48;97290.34;;;22.13;44.78
78073;BME280;67281;48.770;11.440;2023-05-07T09:17:16;97291.81;;;22.15;45.20
78073;BME280;67281;48.770;11.440;2023-05-07T09:19:44;97301.66;;;22.15;44.18
78073;BME280;67281;48.770;11.440;2023-05-07T09:22:13;97298.66;;;22.18;44.10
78073;BME280;67281;48.770;11.440;2023-05-07T09:24:40;97290.47;;;22.19;44.79
78073;BME280;67281;48.770;11.440;2023-05-07T09:27:07;97284.94;;;22.21;44.10
78073;BME280;67281;48.770;11.440;2023-05-07T09:29:36;97289.09;;;22.23;44.14
78073;BME280;67281;48.770;11.440;2023-05-07T09:32:06;97292.41;;;22.25;44.52
78073;BME280;67281;48.770;11.440;2023-05-07T09:34:35;97280.53;;;22.28;44.02
78073;BME280;67281;48.770;11.440;2023-05-07T09:37:04;97291.00;;;22.29;43.83
78073;BME280;67281;48.770;11.440;2023-05-07T09:39:45;97283.66;;;22.32;44.29
78073;BME280;67281;48.770;11.440;2023-05-07T09:42:12;97279.78;;;22.34;44.19
78073;BME280;67281;48.770;11.440;2023-05-07T09:44:43;97282.28;;;22.36;43.76
78073;BME280;67281;48.770;11.440;2023-05-07T09:47:11;97280.09;;;22.39;43.48
78073;BME280;67281;48.770;11.440;2023-05-07T09:49:46;97275.38;;;22.41;43.80
78073;BME280;67281;48.770;11.440;2023-05-07T09:52:14;97281.19;;;22.45;43.58
78073;BME280;67281;48.770;11.440;2023-05-07T09:54:43;97279.34;;;22.45;44.08
78073;BME280;67281;48.770;11.440;2023-05-07T09:57:11;97273.66;;;22.48;44.28
78073;BME280;67281;48.770;11.440;2023-05-07T09:59:42;97276.16;;;22.50;44.00
78073;BME280;67281;48.770;11.440;2023-05-07T10:02:10;97283.16;;;22.51;44.26
78073;BME280;67281;48.770;11.440;2023-05-07T10:04:38;97285.63;;;22.52;43.56
78073;BME280;67281;48.770;11.440;2023-05-07T10:07:07;97276.63;;;22.53;43.52
78073;BME280;67281;48.770;11.440;2023-05-07T10:09:35;97270.91;;;22.56;44.24
78073;BME280;67281;48.770;11.440;2023-05-07T10:12:05;97275.06;;;22.59;44.35
78073;BME280;67281;48.770;11.440;2023-05-07T10:14:52;97271.38;;;22.60;43.76
78073;BME280;67281;48.770;11.440;2023-05-07T10:17:20;97277.00;;;22.65;43.70
78073;BME280;67281;48.770;11.440;2023-05-07T10:19:47;97271.47;;;22.67;43.75
78073;BME280;67281;48.770;11.440;2023-05-07T10:22:16;97279.13;;;22.70;43.24
78073;BME280;67281;48.770;11.440;2023-05-07T10:24:44;97259.06;;;22.74;43.53
78073;BME280;67281;48.770;11.440;2023-05-07T10:27:13;97260.34;;;22.78;43.11
78073;BME280;67281;48.770;11.440;2023-05-07T10:35:14;97257.06;;;22.90;43.41
78073;BME280;67281;48.770;11.440;2023-05-07T10:37:43;97260.00;;;22.96;42.86
78073;BME280;67281;48.770;11.440;2023-05-07T10:40:11;97256.78;;;23.00;43.12
78073;BME280;67281;48.770;11.440;2023-05-07T10:42:38;97259.69;;;23.05;43.17
78073;BME280;67281;48.770;11.440;2023-05-07T10:45:14;97263.03;;;23.07;43.24
78073;BME280;67281;48.770;11.440;2023-05-07T10:48:05;97255.19;;;23.06;42.90
78073;BME280;67281;48.770;11.440;2023-05-07T10:51:18;97254.81;;;23.09;43.53
78073;BME280;67281;48.770;11.440;2023-05-07T10:53:46;97253.16;;;23.08;42.91
78073;BME280;67281;48.770;11.440;2023-05-07T10:58:43;97257.84;;;23.06;43.50
78073;BME280;67281;48.770;11.440;2023-05-07T11:01:10;97256.19;;;23.05;43.11
78073;BME280;67281;48.770;11.440;2023-05-07T11:04:12;97262.13;;;23.00;43.18
78073;BME280;67281;48.770;11.440;2023-05-07T11:06:39;97264.22;;;23.05;43.24
78073;BME280;67281;48.770;11.440;2023-05-07T11:09:06;97261.19;;;23.08;43.39
78073;BME280;67281;48.770;11.440;2023-05-07T11:11:50;97244.75;;;23.11;43.19
78073;BME280;67281;48.770;11.440;2023-05-07T11:14:42;97258.03;;;23.19;42.99
78073;BME280;67281;48.770;11.440;2023-05-07T11:17:10;97247.41;;;23.25;43.35
78073;BME280;67281;48.770;11.440;2023-05-07T11:19:54;97255.91;;;23.29;43.25
78073;BME280;67281;48.770;11.440;2023-05-07T11:22:36;97245.66;;;23.33;42.99
78073;BME280;67281;48.770;11.440;2023-05-07T11:25:06;97248.41;;;23.39;43.40
78073;BME280;67281;48.770;11.440;2023-05-07T11:27:33;97237.53;;;23.41;42.93
78073;BME280;67281;48.770;11.440;2023-05-07T11:30:00;97240.47;;;23.46;42.80
78073;BME280;67281;48.770;11.440;2023-05-07T11:32:32;97254.28;;;23.49;42.95
78073;BME280;67281;48.770;11.440;2023-05-07T11:35:00;97249.59;;;23.51;42.96
78073;BME280;67281;48.770;11.440;2023-05-07T11:37:27;97256.25;;;23.55;42.90
78073;BME280;67281;48.770;11.440;2023-05-07T11:40:07;97252.56;;;23.56;43.54
78073;BME280;67281;48.770;11.440;2023-05-07T11:42:36;97239.44;;;23.62;44.24
78073;BME280;67281;48.770;11.440;2023-05-07T11:45:07;97245.06;;;23.67;42.73
78073;BME280;67281;48.770;11.440;2023-05-07T11:47:34;97247.63;;;23.75;42.87
78073;BME280;67281;48.770;11.440;2023-05-07T11:50:06;97249.03;;;23.77;43.53
78073;BME280;67281;48.770;11.440;2023-05-07T11:52:34;97247.28;;;23.84;43.36
78073;BME280;67281;48.770;11.440;2023-05-07T11:55:02;97249.38;;;23.89;42.91
78073;BME280;67281;48.770;11.440;2023-05-07T11:57:32;97241.78;;;23.92;42.81
78073;BME280;67281;48.770;11.440;2023-05-07T12:00:00;97241.03;;;23.99;42.32
78073;BME280;67281;48.770;11.440;2023-05-07T12:02:28;97239.19;;;23.99;42.72
78073;BME280;67281;48.770;11.440;2023-05-07T12:04:55;97239.81;;;24.01;42.88
78073;BME280;67281;48.770;11.440;2023-05-07T12:07:23;97235.72;;;24.05;42.67
78073;BME280;67281;48.770;11.440;2023-05-07T12:09:50;97235.16;;;24.10;43.08
78073;BME280;67281;48.770;11.440;2023-05-07T12:12:17;97226.94;;;24.11;42.46
78073;BME280;67281;48.770;11.440;2023-05-07T12:14:45;97234.97;;;24.11;42.91
78073;BME280;67281;48.770;11.440;2023-05-07T12:17:13;97228.59;;;24.12;42.86
78073;BME280;67281;48.770;11.440;2023-05-07T12:19:42;97229.22;;;24.14;42.63
78073;BME280;67281;48.770;11.440;2023-05-07T12:22:10;97227.81;;;24.18;42.89
78073;BME280;67281;48.770;11.440;2023-05-07T12:27:13;97231.03;;;24.29;42.92
78073;BME280;67281;48.770;11.440;2023-05-07T12:29:46;97226.94;;;24.33;42.32
78073;BME280;67281;48.770;11.440;2023-05-07T12:32:15;97220.81;;;24.39;42.59
78073;BME280;67281;48.770;11.440;2023-05-07T12:34:43;97217.72;;;24.42;42.88
78073;BME280;67281;48.770;11.440;2023-05-07T12:37:12;97216.94;;;24.48;42.71
78073;BME280;67281;48.770;11.440;2023-05-07T12:39:49;97223.78;;;24.57;42.04
78073;BME280;67281;48.770;11.440;2023-05-07T12:42:19;97222.75;;;24.58;42.36
78073;BME280;67281;48.770;11.440;2023-05-07T12:44:46;97217.22;;;24.60;41.92
78073;BME280;67281;48.770;11.440;2023-05-07T12:47:14;97207.13;;;24.62;42.23
78073;BME280;67281;48.770;11.440;2023-05-07T12:49:43;97201.13;;;24.60;42.23
78073;BME280;67281;48.770;11.440;2023-05-07T12:52:12;97208.09;;;24.47;42.20
78073;BME280;67281;48.770;11.440;2023-05-07T12:54:39;97200.16;;;24.33;42.82
78073;BME280;67281;48.770;11.440;2023-05-07T12:57:07;97208.44;;;24.38;42.87
78073;BME280;67281;48.770;11.440;2023-05-07T12:59:39;97201.53;;;24.56;42.17
78073;BME280;67281;48.770;11.440;2023-05-07T13:02:07;97193.75;;;24.68;42.43
78073;BME280;67281;48.770;11.440;2023-05-07T13:04:35;97188.84;;;24.72;42.20
78073;BME280;67281;48.770;11.440;2023-05-07T13:07:02;97193.59;;;24.76;42.00